sensor_id;sensor_type;location;lat;lon;timestamp;temperature;humidity
3778;DHT22;1904;50.076;8.660;2022-08-04T00:01:53;21.70;1.00
3778;DHT22;1904;50.076;8.660;2022-08-04T00:07:34;21.60;1.00
3778;DHT22;1904;50.076;8.660;2022-08-04T00:10:05;21.60;1.00
3778;DHT22;1904;50.076;8.660;2022-08-04T00:12:34;21.60;1.00
3778;DHT22;1904;50.076;8.660;2022-08-04T00:15:05;21.60;1.00
3778;DHT22;1904;50.076;8.660;2022-08-04T00:17:58;21.50;1.00
3778;DHT22;1904;50.076;8.660;2022-08-04T00:20:37;21.50;1.00
3778;DHT22;1904;50.076;8.660;2022-08-04T00:23:16;21.50;1.00
3778;DHT22;1904;50.076;8.660;2022-08-04T00:25:45;21.50;1.00
3778;DHT22;1904;50.076;8.660;2022-08-04T00:28:22;21.40;1.00
3778;DHT22;1904;50.076;8.660;2022-08-04T00:31:21;21.40;1.00
3778;DHT22;1904;50.076;8.660;2022-08-04T00:36:57;21.40;1.00
3778;DHT22;1904;50.076;8.660;2022-08-04T00:39:24;21.40;1.00
3778;DHT22;1904;50.076;8.660;2022-08-04T00:45:43;21.30;1.00
3778;DHT22;1904;50.076;8.660;2022-08-04T00:48:29;21.30;1.00
3778;DHT22;1904;50.076;8.660;2022-08-04T00:51:12;21.30;1.00
3778;DHT22;1904;50.076;8.660;2022-08-04T00:57:22;21.20;1.00
3778;DHT22;1904;50.076;8.660;2022-08-04T01:00:09;21.20;1.00
3778;DHT22;1904;50.076;8.660;2022-08-04T01:08:53;21.20;1.00
3778;DHT22;1904;50.076;8.660;2022-08-04T01:11:30;21.20;1.00
3778;DHT22;1904;50.076;8.660;2022-08-04T01:20:10;21.10;1.00
3778;DHT22;1904;50.076;8.660;2022-08-04T01:23:24;21.10;1.00
3778;DHT22;1904;50.076;8.660;2022-08-04T01:29:21;21.00;1.00
3778;DHT22;1904;50.076;8.660;2022-08-04T01:32:12;21.00;1.00
3778;DHT22;1904;50.076;8.660;2022-08-04T01:35:00;21.00;1.00
3778;DHT22;1904;50.076;8.660;2022-08-04T01:40:16;21.00;1.00
3778;DHT22;1904;50.076;8.660;2022-08-04T01:42:43;21.00;1.00
3778;DHT22;1904;50.076;8.660;2022-08-04T01:45:48;21.00;1.00
3778;DHT22;1904;50.076;8.660;2022-08-04T01:48:14;20.90;1.00
3778;DHT22;1904;50.076;8.660;2022-08-04T01:51:03;20.90;1.00
3778;DHT22;1904;50.076;8.660;2022-08-04T01:53:46;20.80;1.00
3778;DHT22;1904;50.076;8.660;2022-08-04T01:56:27;20.90;1.00
3778;DHT22;1904;50.076;8.660;2022-08-04T01:59:04;20.80;1.00
3778;DHT22;1904;50.076;8.660;2022-08-04T02:01:39;20.80;1.00
3778;DHT22;1904;50.076;8.660;2022-08-04T02:04:24;20.80;1.00
3778;DHT22;1904;50.076;8.660;2022-08-04T02:10:02;20.70;1.00
3778;DHT22;1904;50.076;8.660;2022-08-04T02:18:02;20.70;1.00
3778;DHT22;1904;50.076;8.660;2022-08-04T02:20:55;20.60;1.00
3778;DHT22;1904;50.076;8.660;2022-08-04T02:26:10;20.50;1.00
3778;DHT22;1904;50.076;8.660;2022-08-04T02:28:53;20.50;1.00
3778;DHT22;1904;50.076;8.660;2022-08-04T02:34:57;20.50;1.00
3778;DHT22;1904;50.076;8.660;2022-08-04T02:37:30;20.50;1.00
3778;DHT22;1904;50.076;8.660;2022-08-04T02:39:58;20.50;1.00
3778;DHT22;1904;50.076;8.660;2022-08-04T02:42:25;20.50;1.00
3778;DHT22;1904;50.076;8.660;2022-08-04T02:44:53;20.50;1.00
3778;DHT22;1904;50.076;8.660;2022-08-04T02:47:24;20.40;1.00
3778;DHT22;1904;50.076;8.660;2022-08-04T02:49:50;20.50;1.00
3778;DHT22;1904;50.076;8.660;2022-08-04T02:52:19;20.40;1.00
3778;DHT22;1904;50.076;8.660;2022-08-04T02:54:50;20.40;1.00
3778;DHT22;1904;50.076;8.660;2022-08-04T02:57:28;20.40;1.00
3778;DHT22;1904;50.076;8.660;2022-08-04T03:00:13;20.40;1.00
3778;DHT22;1904;50.076;8.660;2022-08-04T03:05:33;20.40;1.00
3778;DHT22;1904;50.076;8.660;2022-08-04T03:19:25;20.30;1.00
3778;DHT22;1904;50.076;8.660;2022-08-04T03:21:59;20.30;1.00
3778;DHT22;1904;50.076;8.660;2022-08-04T03:31:06;20.20;1.00
3778;DHT22;1904;50.076;8.660;2022-08-04T03:51:37;20.10;1.00
3778;DHT22;1904;50.076;8.660;2022-08-04T03:57:44;20.10;1.00
3778;DHT22;1904;50.076;8.660;2022-08-04T04:03:28;20.10;1.00
3778;DHT22;1904;50.076;8.660;2022-08-04T04:12:30;20.00;1.00
3778;DHT22;1904;50.076;8.660;2022-08-04T04:15:27;20.10;1.00
3778;DHT22;1904;50.076;8.660;2022-08-04T04:21:30;20.10;1.00
3778;DHT22;1904;50.076;8.660;2022-08-04T04:30:22;20.10;1.00
3778;DHT22;1904;50.076;8.660;2022-08-04T04:36:11;20.10;1.00
3778;DHT22;1904;50.076;8.660;2022-08-04T04:51:24;20.30;1.00
3778;DHT22;1904;50.076;8.660;2022-08-04T04:59:58;20.50;1.00
3778;DHT22;1904;50.076;8.660;2022-08-04T05:17:30;20.90;1.00
3778;DHT22;1904;50.076;8.660;2022-08-04T05:22:53;21.00;1.00
3778;DHT22;1904;50.076;8.660;2022-08-04T05:25:48;21.10;1.00
3778;DHT22;1904;50.076;8.660;2022-08-04T05:28:19;21.30;1.00
3778;DHT22;1904;50.076;8.660;2022-08-04T05:31:19;21.40;1.00
3778;DHT22;1904;50.076;8.660;2022-08-04T05:33:56;21.50;1.00
3778;DHT22;1904;50.076;8.660;2022-08-04T05:36:52;21.60;1.00
3778;DHT22;1904;50.076;8.660;2022-08-04T05:39:24;21.70;1.00
3778;DHT22;1904;50.076;8.660;2022-08-04T05:41:58;21.80;1.00
3778;DHT22;1904;50.076;8.660;2022-08-04T05:44:41;21.90;1.00
3778;DHT22;1904;50.076;8.660;2022-08-04T05:47:09;22.00;1.00
3778;DHT22;1904;50.076;8.660;2022-08-04T05:52:46;22.30;1.00
3778;DHT22;1904;50.076;8.660;2022-08-04T05:55:39;22.40;1.00
3778;DHT22;1904;50.076;8.660;2022-08-04T05:58:16;22.60;1.00
3778;DHT22;1904;50.076;8.660;2022-08-04T06:00:59;22.80;1.00
3778;DHT22;1904;50.076;8.660;2022-08-04T06:06:47;23.30;1.00
3778;DHT22;1904;50.076;8.660;2022-08-04T06:09:13;23.40;1.00
3778;DHT22;1904;50.076;8.660;2022-08-04T06:11:40;23.60;1.00
3778;DHT22;1904;50.076;8.660;2022-08-04T06:14:08;23.70;1.00
3778;DHT22;1904;50.076;8.660;2022-08-04T06:16:41;23.90;1.00
3778;DHT22;1904;50.076;8.660;2022-08-04T06:19:10;24.10;1.00
3778;DHT22;1904;50.076;8.660;2022-08-04T06:21:40;24.20;1.00
3778;DHT22;1904;50.076;8.660;2022-08-04T06:24:13;24.40;1.00
3778;DHT22;1904;50.076;8.660;2022-08-04T06:26:41;24.60;1.00
3778;DHT22;1904;50.076;8.660;2022-08-04T06:29:20;24.80;1.00
3778;DHT22;1904;50.076;8.660;2022-08-04T06:32:08;25.00;1.00
3778;DHT22;1904;50.076;8.660;2022-08-04T06:34:54;25.20;1.00
3778;DHT22;1904;50.076;8.660;2022-08-04T06:37:20;25.40;1.00
3778;DHT22;1904;50.076;8.660;2022-08-04T06:39:47;25.60;1.00
3778;DHT22;1904;50.076;8.660;2022-08-04T06:42:14;25.80;1.00
3778;DHT22;1904;50.076;8.660;2022-08-04T06:44:41;26.00;1.00
3778;DHT22;1904;50.076;8.660;2022-08-04T06:47:09;26.20;1.00
3778;DHT22;1904;50.076;8.660;2022-08-04T06:49:36;26.40;1.00
3778;DHT22;1904;50.076;8.660;2022-08-04T06:52:05;26.60;1.00
3778;DHT22;1904;50.076;8.660;2022-08-04T06:54:31;26.70;1.00
3778;DHT22;1904;50.076;8.660;2022-08-04T06:56:58;26.90;1.00
3778;DHT22;1904;50.076;8.660;2022-08-04T06:59:26;27.00;1.00
3778;DHT22;1904;50.076;8.660;2022-08-04T07:01:53;27.20;1.00
3778;DHT22;1904;50.076;8.660;2022-08-04T07:04:20;27.30;1.00
3778;DHT22;1904;50.076;8.660;2022-08-04T07:06:46;27.40;1.00
3778;DHT22;1904;50.076;8.660;2022-08-04T07:09:12;27.50;1.00
3778;DHT22;1904;50.076;8.660;2022-08-04T07:11:37;27.60;1.00
3778;DHT22;1904;50.076;8.660;2022-08-04T07:14:03;27.70;1.00
3778;DHT22;1904;50.076;8.660;2022-08-04T07:16:30;27.90;1.00
3778;DHT22;1904;50.076;8.660;2022-08-04T07:18:56;28.00;1.00
3778;DHT22;1904;50.076;8.660;2022-08-04T07:21:22;28.20;1.00
3778;DHT22;1904;50.076;8.660;2022-08-04T07:23:49;28.30;1.00
3778;DHT22;1904;50.076;8.660;2022-08-04T07:26:15;28.30;1.00
3778;DHT22;1904;50.076;8.660;2022-08-04T07:28:43;28.40;1.00
3778;DHT22;1904;50.076;8.660;2022-08-04T07:31:16;28.60;1.00
3778;DHT22;1904;50.076;8.660;2022-08-04T07:33:44;28.70;1.00
3778;DHT22;1904;50.076;8.660;2022-08-04T07:36:11;28.80;1.00
3778;DHT22;1904;50.076;8.660;2022-08-04T07:38:39;29.00;1.00
3778;DHT22;1904;50.076;8.660;2022-08-04T07:41:06;29.10;1.00
3778;DHT22;1904;50.076;8.660;2022-08-04T07:43:31;29.20;1.00
3778;DHT22;1904;50.076;8.660;2022-08-04T07:45:57;29.30;1.00
3778;DHT22;1904;50.076;8.660;2022-08-04T07:48:23;29.50;1.00
3778;DHT22;1904;50.076;8.660;2022-08-04T07:50:50;29.70;1.00
3778;DHT22;1904;50.076;8.660;2022-08-04T07:53:17;29.80;1.00
3778;DHT22;1904;50.076;8.660;2022-08-04T07:55:44;30.00;1.00
3778;DHT22;1904;50.076;8.660;2022-08-04T07:58:11;30.20;1.00
3778;DHT22;1904;50.076;8.660;2022-08-04T08:00:36;30.40;1.00
3778;DHT22;1904;50.076;8.660;2022-08-04T08:03:03;30.50;1.00
3778;DHT22;1904;50.076;8.660;2022-08-04T08:05:29;30.60;1.00
3778;DHT22;1904;50.076;8.660;2022-08-04T08:07:55;30.60;1.00
3778;DHT22;1904;50.076;8.660;2022-08-04T08:10:23;30.80;1.00
3778;DHT22;1904;50.076;8.660;2022-08-04T08:12:52;30.90;1.00
3778;DHT22;1904;50.076;8.660;2022-08-04T08:15:18;31.00;1.00
3778;DHT22;1904;50.076;8.660;2022-08-04T08:17:44;31.00;1.00
3778;DHT22;1904;50.076;8.660;2022-08-04T08:20:10;31.10;1.00
3778;DHT22;1904;50.076;8.660;2022-08-04T08:22:36;31.30;1.00
3778;DHT22;1904;50.076;8.660;2022-08-04T08:25:04;31.50;1.00
3778;DHT22;1904;50.076;8.660;2022-08-04T08:27:30;31.60;1.00
3778;DHT22;1904;50.076;8.660;2022-08-04T08:29:56;31.70;1.00
3778;DHT22;1904;50.076;8.660;2022-08-04T08:32:22;31.90;1.00
3778;DHT22;1904;50.076;8.660;2022-08-04T08:34:47;32.00;1.00
3778;DHT22;1904;50.076;8.660;2022-08-04T08:37:29;32.00;1.00
3778;DHT22;1904;50.076;8.660;2022-08-04T08:45:50;32.10;1.00
3778;DHT22;1904;50.076;8.660;2022-08-04T08:51:58;32.40;1.00
3778;DHT22;1904;50.076;8.660;2022-08-04T08:54:52;32.50;1.00
3778;DHT22;1904;50.076;8.660;2022-08-04T08:57:44;32.60;1.00
3778;DHT22;1904;50.076;8.660;2022-08-04T09:06:01;32.80;1.00
3778;DHT22;1904;50.076;8.660;2022-08-04T09:08:42;32.90;1.00
3778;DHT22;1904;50.076;8.660;2022-08-04T09:11:26;32.90;1.00
3778;DHT22;1904;50.076;8.660;2022-08-04T09:14:09;32.70;1.00
3778;DHT22;1904;50.076;8.660;2022-08-04T09:16:56;32.80;1.00
3778;DHT22;1904;50.076;8.660;2022-08-04T09:27:29;32.80;1.00
3778;DHT22;1904;50.076;8.660;2022-08-04T09:30:04;32.90;1.00
3778;DHT22;1904;50.076;8.660;2022-08-04T09:33:09;32.90;1.00
3778;DHT22;1904;50.076;8.660;2022-08-04T09:35:47;33.00;1.00
3778;DHT22;1904;50.076;8.660;2022-08-04T09:38:20;33.10;1.00
3778;DHT22;1904;50.076;8.660;2022-08-04T09:40:52;33.20;1.00
3778;DHT22;1904;50.076;8.660;2022-08-04T09:46:39;33.30;1.00
3778;DHT22;1904;50.076;8.660;2022-08-04T09:49:13;33.50;1.00
3778;DHT22;1904;50.076;8.660;2022-08-04T09:51:56;33.60;1.00
3778;DHT22;1904;50.076;8.660;2022-08-04T09:57:03;33.90;1.00
3778;DHT22;1904;50.076;8.660;2022-08-04T10:02:08;34.00;1.00
3778;DHT22;1904;50.076;8.660;2022-08-04T10:04:38;34.20;1.00
3778;DHT22;1904;50.076;8.660;2022-08-04T10:12:37;34.60;1.00
3778;DHT22;1904;50.076;8.660;2022-08-04T10:23:39;34.80;1.00
3778;DHT22;1904;50.076;8.660;2022-08-04T10:29:11;34.70;1.00
3778;DHT22;1904;50.076;8.660;2022-08-04T10:32:05;34.60;1.00
3778;DHT22;1904;50.076;8.660;2022-08-04T10:34:38;34.70;1.00
3778;DHT22;1904;50.076;8.660;2022-08-04T10:37:18;34.80;1.00
3778;DHT22;1904;50.076;8.660;2022-08-04T10:40:07;35.10;1.00
3778;DHT22;1904;50.076;8.660;2022-08-04T10:42:59;35.30;1.00
3778;DHT22;1904;50.076;8.660;2022-08-04T10:45:58;35.50;1.00
3778;DHT22;1904;50.076;8.660;2022-08-04T10:48:35;35.70;1.00
3778;DHT22;1904;50.076;8.660;2022-08-04T10:51:18;35.70;1.00
3778;DHT22;1904;50.076;8.660;2022-08-04T10:53:50;35.80;1.00
3778;DHT22;1904;50.076;8.660;2022-08-04T10:59:38;35.80;1.00
3778;DHT22;1904;50.076;8.660;2022-08-04T11:02:17;35.70;1.00
3778;DHT22;1904;50.076;8.660;2022-08-04T11:04:48;35.70;1.00
3778;DHT22;1904;50.076;8.660;2022-08-04T11:07:23;35.70;1.00
3778;DHT22;1904;50.076;8.660;2022-08-04T11:10:05;35.90;1.00
3778;DHT22;1904;50.076;8.660;2022-08-04T11:12:59;36.00;1.00
3778;DHT22;1904;50.076;8.660;2022-08-04T11:15:38;36.10;1.00
3778;DHT22;1904;50.076;8.660;2022-08-04T11:18:16;36.30;1.00
3778;DHT22;1904;50.076;8.660;2022-08-04T11:20:50;36.40;1.00
3778;DHT22;1904;50.076;8.660;2022-08-04T11:23:28;36.50;1.00
3778;DHT22;1904;50.076;8.660;2022-08-04T11:26:18;36.60;1.00
3778;DHT22;1904;50.076;8.660;2022-08-04T11:29:04;36.70;1.00
3778;DHT22;1904;50.076;8.660;2022-08-04T11:31:42;36.90;1.00
3778;DHT22;1904;50.076;8.660;2022-08-04T11:34:19;37.10;1.00
3778;DHT22;1904;50.076;8.660;2022-08-04T11:39:34;37.20;1.00
3778;DHT22;1904;50.076;8.660;2022-08-04T11:44:46;37.10;1.00
3778;DHT22;1904;50.076;8.660;2022-08-04T11:47:40;37.00;1.00
3778;DHT22;1904;50.076;8.660;2022-08-04T11:52:33;37.20;1.00
3778;DHT22;1904;50.076;8.660;2022-08-04T11:55:03;37.20;1.00
3778;DHT22;1904;50.076;8.660;2022-08-04T11:57:30;37.30;1.00
3778;DHT22;1904;50.076;8.660;2022-08-04T11:59:57;37.40;1.00
3778;DHT22;1904;50.076;8.660;2022-08-04T12:05:20;37.50;1.00
3778;DHT22;1904;50.076;8.660;2022-08-04T12:16:27;37.40;1.00
3778;DHT22;1904;50.076;8.660;2022-08-04T12:18:58;37.50;1.00
3778;DHT22;1904;50.076;8.660;2022-08-04T12:24:01;37.80;1.00
3778;DHT22;1904;50.076;8.660;2022-08-04T12:26:37;37.80;1.00
3778;DHT22;1904;50.076;8.660;2022-08-04T12:29:10;37.90;1.00
3778;DHT22;1904;50.076;8.660;2022-08-04T12:31:52;37.90;1.00
3778;DHT22;1904;50.076;8.660;2022-08-04T12:34:39;37.90;1.00
3778;DHT22;1904;50.076;8.660;2022-08-04T12:39:53;37.80;1.00
3778;DHT22;1904;50.076;8.660;2022-08-04T12:42:29;37.50;1.00
3778;DHT22;1904;50.076;8.660;2022-08-04T12:45:10;37.50;1.00
3778;DHT22;1904;50.076;8.660;2022-08-04T12:50:55;37.70;1.00
3778;DHT22;1904;50.076;8.660;2022-08-04T12:53:26;37.90;1.00
3778;DHT22;1904;50.076;8.660;2022-08-04T12:55:53;37.90;1.00
3778;DHT22;1904;50.076;8.660;2022-08-04T12:58:26;38.00;1.00
3778;DHT22;1904;50.076;8.660;2022-08-04T13:01:01;38.20;1.00
3778;DHT22;1904;50.076;8.660;2022-08-04T13:03:35;38.40;1.00
3778;DHT22;1904;50.076;8.660;2022-08-04T13:06:05;38.60;1.00
3778;DHT22;1904;50.076;8.660;2022-08-04T13:08:36;38.50;1.00
3778;DHT22;1904;50.076;8.660;2022-08-04T13:11:03;38.70;1.00
3778;DHT22;1904;50.076;8.660;2022-08-04T13:13:33;39.00;1.00
3778;DHT22;1904;50.076;8.660;2022-08-04T13:16:06;39.00;1.00
3778;DHT22;1904;50.076;8.660;2022-08-04T13:18:38;39.20;1.00
3778;DHT22;1904;50.076;8.660;2022-08-04T13:21:23;39.10;1.00
3778;DHT22;1904;50.076;8.660;2022-08-04T13:23:52;39.20;1.00
3778;DHT22;1904;50.076;8.660;2022-08-04T13:26:20;39.10;1.00
3778;DHT22;1904;50.076;8.660;2022-08-04T13:28:48;39.00;1.00
3778;DHT22;1904;50.076;8.660;2022-08-04T13:31:17;39.20;1.00
3778;DHT22;1904;50.076;8.660;2022-08-04T13:33:46;39.40;1.00
3778;DHT22;1904;50.076;8.660;2022-08-04T13:36:13;39.30;1.00
3778;DHT22;1904;50.076;8.660;2022-08-04T13:38:53;39.50;1.00
3778;DHT22;1904;50.076;8.660;2022-08-04T13:41:20;39.70;1.00
3778;DHT22;1904;50.076;8.660;2022-08-04T13:43:49;40.00;1.00
3778;DHT22;1904;50.076;8.660;2022-08-04T13:46:23;40.20;1.00
3778;DHT22;1904;50.076;8.660;2022-08-04T13:48:50;40.40;1.00
3778;DHT22;1904;50.076;8.660;2022-08-04T13:51:18;40.50;1.00
3778;DHT22;1904;50.076;8.660;2022-08-04T13:53:52;40.40;1.00
3778;DHT22;1904;50.076;8.660;2022-08-04T13:56:20;40.50;1.00
3778;DHT22;1904;50.076;8.660;2022-08-04T13:58:48;40.60;1.00
3778;DHT22;1904;50.076;8.660;2022-08-04T14:01:23;40.40;1.00
3778;DHT22;1904;50.076;8.660;2022-08-04T14:03:58;40.30;1.00
3778;DHT22;1904;50.076;8.660;2022-08-04T14:06:31;40.80;1.00
3778;DHT22;1904;50.076;8.660;2022-08-04T14:09:22;41.00;1.00
3778;DHT22;1904;50.076;8.660;2022-08-04T14:11:53;41.60;1.00
3778;DHT22;1904;50.076;8.660;2022-08-04T14:14:30;41.60;1.00
3778;DHT22;1904;50.076;8.660;2022-08-04T14:17:33;41.70;1.00
3778;DHT22;1904;50.076;8.660;2022-08-04T14:20:04;42.10;1.00
3778;DHT22;1904;50.076;8.660;2022-08-04T14:22:33;42.20;1.00
3778;DHT22;1904;50.076;8.660;2022-08-04T14:27:55;42.40;1.00
3778;DHT22;1904;50.076;8.660;2022-08-04T14:30:34;42.30;1.00
3778;DHT22;1904;50.076;8.660;2022-08-04T14:33:10;42.10;1.00
3778;DHT22;1904;50.076;8.660;2022-08-04T14:35:38;42.00;1.00
3778;DHT22;1904;50.076;8.660;2022-08-04T14:38:08;41.90;1.00
3778;DHT22;1904;50.076;8.660;2022-08-04T14:40:41;41.60;1.00
3778;DHT22;1904;50.076;8.660;2022-08-04T14:43:08;41.60;1.00
3778;DHT22;1904;50.076;8.660;2022-08-04T14:48:05;41.50;1.00
3778;DHT22;1904;50.076;8.660;2022-08-04T14:50:35;41.40;1.00
3778;DHT22;1904;50.076;8.660;2022-08-04T14:53:03;41.10;1.00
3778;DHT22;1904;50.076;8.660;2022-08-04T14:55:34;41.00;1.00
3778;DHT22;1904;50.076;8.660;2022-08-04T14:58:00;40.80;1.00
3778;DHT22;1904;50.076;8.660;2022-08-04T15:00:35;40.70;1.00
3778;DHT22;1904;50.076;8.660;2022-08-04T15:03:06;40.80;1.00
3778;DHT22;1904;50.076;8.660;2022-08-04T15:05:41;41.10;1.00
3778;DHT22;1904;50.076;8.660;2022-08-04T15:08:07;41.10;1.00
3778;DHT22;1904;50.076;8.660;2022-08-04T15:10:34;41.30;1.00
3778;DHT22;1904;50.076;8.660;2022-08-04T15:13:01;41.40;1.00
3778;DHT22;1904;50.076;8.660;2022-08-04T15:15:27;41.60;1.00
3778;DHT22;1904;50.076;8.660;2022-08-04T15:17:58;41.60;1.00
3778;DHT22;1904;50.076;8.660;2022-08-04T15:20:24;41.60;1.00
3778;DHT22;1904;50.076;8.660;2022-08-04T15:22:50;41.70;1.00
3778;DHT22;1904;50.076;8.660;2022-08-04T15:25:37;42.00;1.00
3778;DHT22;1904;50.076;8.660;2022-08-04T15:28:04;43.00;1.00
3778;DHT22;1904;50.076;8.660;2022-08-04T15:30:32;44.50;1.00
3778;DHT22;1904;50.076;8.660;2022-08-04T15:33:00;45.60;1.00
3778;DHT22;1904;50.076;8.660;2022-08-04T15:35:28;46.30;1.00
3778;DHT22;1904;50.076;8.660;2022-08-04T15:38:00;47.30;1.00
3778;DHT22;1904;50.076;8.660;2022-08-04T15:40:46;48.30;1.00
3778;DHT22;1904;50.076;8.660;2022-08-04T15:46:10;49.10;1.00
3778;DHT22;1904;50.076;8.660;2022-08-04T15:48:37;49.80;1.00
3778;DHT22;1904;50.076;8.660;2022-08-04T15:51:06;49.40;1.00
3778;DHT22;1904;50.076;8.660;2022-08-04T15:58:51;45.40;1.00
3778;DHT22;1904;50.076;8.660;2022-08-04T16:01:28;44.20;1.00
3778;DHT22;1904;50.076;8.660;2022-08-04T16:03:58;43.10;1.00
3778;DHT22;1904;50.076;8.660;2022-08-04T16:19:25;43.20;1.00
3778;DHT22;1904;50.076;8.660;2022-08-04T16:21:55;44.20;1.00
3778;DHT22;1904;50.076;8.660;2022-08-04T16:24:34;46.00;1.00
3778;DHT22;1904;50.076;8.660;2022-08-04T16:27:11;47.20;1.00
3778;DHT22;1904;50.076;8.660;2022-08-04T16:29:40;48.30;1.00
3778;DHT22;1904;50.076;8.660;2022-08-04T16:32:22;48.10;1.00
3778;DHT22;1904;50.076;8.660;2022-08-04T16:37:19;47.40;1.00
3778;DHT22;1904;50.076;8.660;2022-08-04T16:39:47;47.40;1.00
3778;DHT22;1904;50.076;8.660;2022-08-04T16:42:33;47.50;1.00
3778;DHT22;1904;50.076;8.660;2022-08-04T16:45:00;47.10;1.00
3778;DHT22;1904;50.076;8.660;2022-08-04T16:47:59;46.70;1.00
3778;DHT22;1904;50.076;8.660;2022-08-04T16:50:25;46.80;1.00
3778;DHT22;1904;50.076;8.660;2022-08-04T16:52:53;47.40;1.00
3778;DHT22;1904;50.076;8.660;2022-08-04T16:55:22;47.40;1.00
3778;DHT22;1904;50.076;8.660;2022-08-04T16:57:49;47.10;1.00
3778;DHT22;1904;50.076;8.660;2022-08-04T17:00:16;46.70;1.00
3778;DHT22;1904;50.076;8.660;2022-08-04T17:02:42;46.60;1.00
3778;DHT22;1904;50.076;8.660;2022-08-04T17:05:20;47.10;1.00
3778;DHT22;1904;50.076;8.660;2022-08-04T17:07:54;48.00;1.00
3778;DHT22;1904;50.076;8.660;2022-08-04T17:10:35;49.00;1.00
3778;DHT22;1904;50.076;8.660;2022-08-04T17:15:46;49.60;1.00
3778;DHT22;1904;50.076;8.660;2022-08-04T17:18:18;48.80;1.00
3778;DHT22;1904;50.076;8.660;2022-08-04T17:20:46;47.80;1.00
3778;DHT22;1904;50.076;8.660;2022-08-04T17:23:35;46.40;1.00
3778;DHT22;1904;50.076;8.660;2022-08-04T17:26:14;45.40;1.00
3778;DHT22;1904;50.076;8.660;2022-08-04T17:28:47;44.20;1.00
3778;DHT22;1904;50.076;8.660;2022-08-04T17:31:13;43.40;1.00
3778;DHT22;1904;50.076;8.660;2022-08-04T17:33:44;42.90;1.00
3778;DHT22;1904;50.076;8.660;2022-08-04T17:36:17;42.50;1.00
3778;DHT22;1904;50.076;8.660;2022-08-04T17:38:47;42.30;1.00
3778;DHT22;1904;50.076;8.660;2022-08-04T17:41:19;42.10;1.00
3778;DHT22;1904;50.076;8.660;2022-08-04T17:46:32;41.10;1.00
3778;DHT22;1904;50.076;8.660;2022-08-04T17:53:59;39.80;1.00
3778;DHT22;1904;50.076;8.660;2022-08-04T17:56:32;39.50;1.00
3778;DHT22;1904;50.076;8.660;2022-08-04T17:59:10;39.10;1.00
3778;DHT22;1904;50.076;8.660;2022-08-04T18:01:45;38.80;1.00
3778;DHT22;1904;50.076;8.660;2022-08-04T18:04:32;38.60;1.00
3778;DHT22;1904;50.076;8.660;2022-08-04T18:06:59;38.30;1.00
3778;DHT22;1904;50.076;8.660;2022-08-04T18:09:31;38.00;1.00
3778;DHT22;1904;50.076;8.660;2022-08-04T18:12:03;37.70;1.00
3778;DHT22;1904;50.076;8.660;2022-08-04T18:14:43;37.40;1.00
3778;DHT22;1904;50.076;8.660;2022-08-04T18:17:10;37.20;1.00
3778;DHT22;1904;50.076;8.660;2022-08-04T18:19:37;36.80;1.00
3778;DHT22;1904;50.076;8.660;2022-08-04T18:22:04;36.60;1.00
3778;DHT22;1904;50.076;8.660;2022-08-04T18:24:32;36.20;1.00
3778;DHT22;1904;50.076;8.660;2022-08-04T18:26:58;35.90;1.00
3778;DHT22;1904;50.076;8.660;2022-08-04T18:29:24;35.60;1.00
3778;DHT22;1904;50.076;8.660;2022-08-04T18:35:11;35.10;1.00
3778;DHT22;1904;50.076;8.660;2022-08-04T18:37:39;34.90;1.00
3778;DHT22;1904;50.076;8.660;2022-08-04T18:40:06;34.60;1.00
3778;DHT22;1904;50.076;8.660;2022-08-04T18:42:33;34.50;1.00
3778;DHT22;1904;50.076;8.660;2022-08-04T18:44:59;34.30;1.00
3778;DHT22;1904;50.076;8.660;2022-08-04T18:47:34;34.10;1.00
3778;DHT22;1904;50.076;8.660;2022-08-04T18:50:00;34.00;1.00
3778;DHT22;1904;50.076;8.660;2022-08-04T18:52:34;33.80;1.00
3778;DHT22;1904;50.076;8.660;2022-08-04T18:55:10;33.60;1.00
3778;DHT22;1904;50.076;8.660;2022-08-04T18:58:03;33.40;1.00
3778;DHT22;1904;50.076;8.660;2022-08-04T19:00:29;33.20;1.00
3778;DHT22;1904;50.076;8.660;2022-08-04T19:03:10;33.10;1.00
3778;DHT22;1904;50.076;8.660;2022-08-04T19:05:40;32.80;1.00
3778;DHT22;1904;50.076;8.660;2022-08-04T19:08:16;32.70;1.00
3778;DHT22;1904;50.076;8.660;2022-08-04T19:10:52;32.50;1.00
3778;DHT22;1904;50.076;8.660;2022-08-04T19:13:22;32.40;1.00
3778;DHT22;1904;50.076;8.660;2022-08-04T19:15:52;32.20;1.00
3778;DHT22;1904;50.076;8.660;2022-08-04T19:18:39;32.00;1.00
3778;DHT22;1904;50.076;8.660;2022-08-04T19:21:05;31.80;1.00
3778;DHT22;1904;50.076;8.660;2022-08-04T19:23:40;31.70;1.00
3778;DHT22;1904;50.076;8.660;2022-08-04T19:26:27;31.60;1.00
3778;DHT22;1904;50.076;8.660;2022-08-04T19:28:53;31.40;1.00
3778;DHT22;1904;50.076;8.660;2022-08-04T19:31:19;31.20;1.00
3778;DHT22;1904;50.076;8.660;2022-08-04T19:33:45;31.10;1.00
3778;DHT22;1904;50.076;8.660;2022-08-04T19:36:11;31.00;1.00
3778;DHT22;1904;50.076;8.660;2022-08-04T19:38:37;30.90;1.00
3778;DHT22;1904;50.076;8.660;2022-08-04T19:41:04;30.70;1.00
3778;DHT22;1904;50.076;8.660;2022-08-04T19:43:34;30.60;1.00
3778;DHT22;1904;50.076;8.660;2022-08-04T19:46:04;30.50;1.00
3778;DHT22;1904;50.076;8.660;2022-08-04T19:48:34;30.30;1.00
3778;DHT22;1904;50.076;8.660;2022-08-04T19:51:16;30.30;1.00
3778;DHT22;1904;50.076;8.660;2022-08-04T19:53:45;30.10;1.00
3778;DHT22;1904;50.076;8.660;2022-08-04T19:56:39;30.00;1.00
3778;DHT22;1904;50.076;8.660;2022-08-04T19:59:22;29.90;1.00
3778;DHT22;1904;50.076;8.660;2022-08-04T20:02:09;29.70;1.00
3778;DHT22;1904;50.076;8.660;2022-08-04T20:04:40;29.60;1.00
3778;DHT22;1904;50.076;8.660;2022-08-04T20:07:16;29.50;1.00
3778;DHT22;1904;50.076;8.660;2022-08-04T20:09:42;29.40;1.00
3778;DHT22;1904;50.076;8.660;2022-08-04T20:12:22;29.30;1.00
3778;DHT22;1904;50.076;8.660;2022-08-04T20:14:47;29.30;1.00
3778;DHT22;1904;50.076;8.660;2022-08-04T20:17:13;29.20;1.00
3778;DHT22;1904;50.076;8.660;2022-08-04T20:19:39;29.10;1.00
3778;DHT22;1904;50.076;8.660;2022-08-04T20:22:05;29.10;1.00
3778;DHT22;1904;50.076;8.660;2022-08-04T20:24:31;29.00;1.00
3778;DHT22;1904;50.076;8.660;2022-08-04T20:26:57;28.90;1.00
3778;DHT22;1904;50.076;8.660;2022-08-04T20:29:23;28.90;1.00
3778;DHT22;1904;50.076;8.660;2022-08-04T20:31:49;28.90;1.00
3778;DHT22;1904;50.076;8.660;2022-08-04T20:34:34;28.90;1.00
3778;DHT22;1904;50.076;8.660;2022-08-04T20:36:59;28.90;1.00
3778;DHT22;1904;50.076;8.660;2022-08-04T20:39:28;28.90;1.00
3778;DHT22;1904;50.076;8.660;2022-08-04T20:41:58;29.00;1.00
3778;DHT22;1904;50.076;8.660;2022-08-04T20:44:28;29.00;1.00
3778;DHT22;1904;50.076;8.660;2022-08-04T20:46:54;29.00;1.00
3778;DHT22;1904;50.076;8.660;2022-08-04T20:49:19;29.00;1.00
3778;DHT22;1904;50.076;8.660;2022-08-04T20:51:45;29.00;1.00
3778;DHT22;1904;50.076;8.660;2022-08-04T20:54:11;29.00;1.00
3778;DHT22;1904;50.076;8.660;2022-08-04T20:56:36;29.00;1.00
3778;DHT22;1904;50.076;8.660;2022-08-04T20:59:04;29.00;1.00
3778;DHT22;1904;50.076;8.660;2022-08-04T21:01:46;29.00;1.00
3778;DHT22;1904;50.076;8.660;2022-08-04T21:04:16;29.00;1.00
3778;DHT22;1904;50.076;8.660;2022-08-04T21:07:06;29.10;1.00
3778;DHT22;1904;50.076;8.660;2022-08-04T21:09:46;29.10;1.00
3778;DHT22;1904;50.076;8.660;2022-08-04T21:12:17;29.10;1.00
3778;DHT22;1904;50.076;8.660;2022-08-04T21:14:52;29.20;1.00
3778;DHT22;1904;50.076;8.660;2022-08-04T21:17:18;29.20;1.00
3778;DHT22;1904;50.076;8.660;2022-08-04T21:19:43;29.20;1.00
3778;DHT22;1904;50.076;8.660;2022-08-04T21:22:16;29.30;1.00
3778;DHT22;1904;50.076;8.660;2022-08-04T21:25:03;29.30;1.00
3778;DHT22;1904;50.076;8.660;2022-08-04T21:27:29;29.30;1.00
3778;DHT22;1904;50.076;8.660;2022-08-04T21:29:55;29.30;1.00
3778;DHT22;1904;50.076;8.660;2022-08-04T21:32:21;29.30;1.00
3778;DHT22;1904;50.076;8.660;2022-08-04T21:34:46;29.30;1.00